»·PEaware :: ASA180 KSFO-KLAX

ASA180 :: KSFO-KLAX

FLIGHT INFORMATION

Flight Status: Arrived
Operator:
Alaska Airlines
More flights by this operator :: More flights under this callsign
Pilot: Etienne B. (28927)
Aircraft: AIRBUS A320
(A320)
More flights by this aircraft type
Origin: KSFO San Francisco Intl
United States
Destination: KLAX Los Angeles Intl
United States
More flights between these airports :: More routes between these airports
Route: SSTIK4 EBAYE BURGL IRNMN2
File this flight plan on PilotEdge
Remarks: RMK / SIMBRIEF
Altitude:
(Current/Filed)
33,000ft
Speed:
(Current/Filed)
422kts
Departed: 20-May-20 03:30 PM
Arrived: 20-May-20 04:28 PM
Distance/Time
Traveled:
293nm/0:58
Distance/Time
To Go:
Arrived

Flight Plot

Page will automatically refresh every two minutes.

Flight plan parsing failed; only flown route is shown


Map Options




Map Legend


Flown Route
Filed Route
Departure Airport
Arrival Airport
Navaid (VOR, NDB)
Fix

Horizontal Profiles

Position Reports

Time Latitude Longitude Heading Altitude Ground
Speed
20-May-20 15:14 37.615523 -122.382684 224 32ft 0kts
20-May-20 15:15 37.615523 -122.382684 224 32ft 0kts
20-May-20 15:16 37.615523 -122.382684 224 32ft 0kts
20-May-20 15:17 37.615523 -122.382684 224 32ft 0kts
20-May-20 15:18 37.615523 -122.382684 224 32ft 0kts
20-May-20 15:19 37.615523 -122.382684 224 32ft 0kts
20-May-20 15:20 37.615523 -122.382684 224 32ft 0kts
20-May-20 15:21 37.615523 -122.382684 224 32ft 0kts
20-May-20 15:22 37.615523 -122.382683 224 32ft 0kts
20-May-20 15:23 37.615969 -122.382461 155 32ft 2kts
20-May-20 15:25 37.616150 -122.382698 117 32ft 0kts
20-May-20 15:26 37.616133 -122.382658 117 32ft 2kts
20-May-20 15:27 37.615783 -122.381795 117 32ft 3kts
20-May-20 15:28 37.612550 -122.382317 208 32ft 21kts
20-May-20 15:29 37.609161 -122.383667 119 32ft 0kts
20-May-20 15:30 37.611465 -122.380570 29 32ft 74kts
20-May-20 15:31 37.653679 -122.362448 0 1587ft 194kts
20-May-20 15:32 37.709028 -122.386349 293 3838ft 254kts
20-May-20 15:33 37.677823 -122.459151 192 6910ft 288kts
20-May-20 15:34 37.595737 -122.466300 184 9867ft 305kts
20-May-20 15:35 37.505102 -122.470954 169 11515ft 360kts
20-May-20 15:36 37.425433 -122.387778 131 13017ft 393kts
20-May-20 15:37 37.350246 -122.284960 131 14929ft 408kts
20-May-20 15:38 37.271909 -122.178814 131 16660ft 422kts
20-May-20 15:39 37.190999 -122.069612 131 18226ft 436kts
20-May-20 15:39 37.121692 -121.976365 131 19460ft 445kts
20-May-20 15:41 37.021950 -121.842647 131 20966ft 460kts
20-May-20 15:42 36.933159 -121.724147 131 22145ft 473kts
20-May-20 15:42 36.857695 -121.623684 132 23103ft 481kts
20-May-20 15:43 36.765094 -121.500826 132 24149ft 491kts
20-May-20 15:45 36.654353 -121.354539 132 25294ft 501kts
20-May-20 15:45 36.574313 -121.249228 133 26026ft 508kts
20-May-20 15:46 36.476638 -121.121164 133 26879ft 515kts
20-May-20 15:48 36.364925 -120.966170 130 28039ft 516kts
20-May-20 15:48 36.286527 -120.853733 130 28887ft 517kts
20-May-20 15:49 36.192554 -120.719412 131 29942ft 517kts
20-May-20 15:50 36.098065 -120.584899 131 30990ft 517kts
20-May-20 15:51 36.003761 -120.451177 131 32006ft 516kts
20-May-20 15:52 35.909607 -120.318194 132 32954ft 516kts
20-May-20 15:53 35.800022 -120.208548 152 33142ft 507kts
20-May-20 15:54 35.679460 -120.117901 152 33143ft 509kts
20-May-20 15:55 35.558750 -120.026838 152 33143ft 509kts
20-May-20 15:56 35.438266 -119.936209 152 33152ft 509kts
20-May-20 15:57 35.318162 -119.846191 151 32749ft 507kts
20-May-20 15:58 35.203512 -119.744423 144 31756ft 511kts
20-May-20 15:59 35.090337 -119.638881 144 30810ft 512kts
20-May-20 16:00 34.977224 -119.533651 144 28057ft 518kts
20-May-20 16:01 34.861679 -119.428158 145 25331ft 510kts
20-May-20 16:02 34.752790 -119.330872 146 24542ft 462kts
20-May-20 16:03 34.652803 -119.243426 146 23117ft 435kts
20-May-20 16:04 34.555598 -119.159641 146 21267ft 421kts
20-May-20 16:05 34.462635 -119.077252 145 19446ft 408kts
20-May-20 16:06 34.372364 -118.998595 145 17658ft 394kts
20-May-20 16:07 34.285734 -118.921457 143 15917ft 380kts
20-May-20 16:08 34.202965 -118.845679 142 14350ft 361kts
20-May-20 16:09 34.129811 -118.770951 137 12907ft 321kts
20-May-20 16:10 34.065212 -118.701604 138 10542ft 306kts
20-May-20 16:11 34.025465 -118.620933 95 8861ft 280kts
20-May-20 16:12 34.016972 -118.529623 95 7590ft 277kts
20-May-20 16:13 34.012492 -118.443236 76 6927ft 251kts
20-May-20 16:14 34.023083 -118.363106 82 6072ft 250kts
20-May-20 16:15 34.030964 -118.284047 82 5193ft 247kts
20-May-20 16:16 34.039155 -118.204056 82 5014ft 246kts
20-May-20 16:17 34.047188 -118.123009 82 5010ft 245kts
20-May-20 16:18 34.046882 -118.043061 127 5013ft 246kts
20-May-20 16:19 33.991052 -118.048075 231 4926ft 236kts
20-May-20 16:20 33.965386 -118.115187 262 4274ft 216kts
20-May-20 16:21 33.958059 -118.178446 265 3566ft 186kts
20-May-20 16:22 33.952609 -118.232797 264 2568ft 159kts
20-May-20 16:23 33.947563 -118.280338 263 1852ft 139kts
20-May-20 16:24 33.942818 -118.327989 264 1038ft 141kts
20-May-20 16:25 33.938389 -118.371976 262 300ft 125kts
20-May-20 16:26 33.935457 -118.401049 261 123ft 44kts
20-May-20 16:27 33.935735 -118.405856 287 130ft 3kts
20-May-20 16:28 33.935965 -118.407524 268 132ft 4kts
20-May-20 16:29 33.937017 -118.409007 353 134ft 13kts
20-May-20 16:30 33.939444 -118.408082 356 132ft 5kts
20-May-20 16:31 33.940145 -118.407401 70 131ft 0kts

Navigation Log

Ident Type
Flight plan parsing failed, navigation log unavailable